Airfield :







YOU CAN JOIN US ON...

 
LOGIN :

Register | Disclaimer

   EN    FR    IT 

 









Legend :    VFR   Marginal VFR   IFR   Intensive IFR   Very Intensive IFR
Visi :
Ceiling :
>= 8 km
>= 3000ft
5 to 8 km
1000 to 3000 ft
1500m to 5 km
500 to 1000 ft
800 to 1500m
200 to 500 ft
< 800m
< 200 ft
Symbols :   Thunderstorms  Fog  Heavy snow  Heavy precipitations  Wind > 20 kt






- Airport Elevation : 118 ft
- IATA code : YUL


CYUL - Montréal - Pierre-Elliott-Trudeau Int.

CURRENT METAR :
  • 162200Z 06007KT 15SM FEW030TCU BKN120 OVC240 23/15 A3008 RMK TCU1AC5CI2 SLP189 DENSITY ALT 1000FT

EXPIRED METARs :
  • 162154Z 05009G15KT 15SM FEW030TCU BKN120 OVC240 23/14 A3008 RMK TCU1AC4CI3 SLP187 DENSITY ALT 1000FT
  • 162137Z 04009KT 15SM FEW025TCU BKN090 OVC250 24/15 A3008 RMK TCU2ACC4CI2 SLP186 DENSITY ALT 1000FT
  • 162100Z 08014G22KT 15SM FEW025TCU BKN100 OVC250 24/13 A3008 RMK TCU2ACC4CI2 SLP187 DENSITY ALT 1100FT
  • 162000Z 05007KT 15SM BKN062 BKN090 BKN250 27/14 A3008 RMK SC6AC1CI1 CI TR SLP186 DENSITY ALT 1400FT

TAF AMD TAF CYUL
Valid from the 16 at 22:00 until the 17 at 18:00 UTC


162200Z 1622/1718 05012KT P6SM BKN120
TEMPO 1622/1624 P6SM -SHRA BKN060
FM170000 06010KT P6SM SCT050 BKN240
FM171400 04010KT P6SM BKN060 OVC160 RMK NXT FCST BY 170000Z
ATIS : ENG : +1 514-633-3037 FRA : +1 514-633-3034
CZUL FIR / North America



MET'MAP, your aeronautical weather chart ! - Copyright ORBIFLY December 2007 - Disclaimer

ORBIFLY MET'MAP TEAM :

Programming & Development : Alexandra Zaïnal
Original concept : Baudouin d'Aumeries
Technical & hardware support : Manuel Goepfert
Assistance : Marc-Olivier Méhu




SOURCES & CREDITS :

   NOAA